sensor_id;sensor_type;location;lat;lon;timestamp;pressure;altitude;pressure_sealevel;temperature;humidity
6132;BME280;3097;42.692;23.278;2022-10-19T00:00:20;95657.44;;;6.59;78.92
6132;BME280;3097;42.692;23.278;2022-10-19T00:02:46;95656.66;;;6.59;78.94
6132;BME280;3097;42.692;23.278;2022-10-19T00:05:11;95655.47;;;6.61;79.18
6132;BME280;3097;42.692;23.278;2022-10-19T00:07:37;95654.59;;;6.54;79.62
6132;BME280;3097;42.692;23.278;2022-10-19T00:10:06;95624.75;;;6.32;78.94
6132;BME280;3097;42.692;23.278;2022-10-19T00:12:32;95655.69;;;6.45;79.53
6132;BME280;3097;42.692;23.278;2022-10-19T00:14:57;95658.75;;;6.41;79.54
6132;BME280;3097;42.692;23.278;2022-10-19T00:17:23;95643.66;;;6.31;79.40
6132;BME280;3097;42.692;23.278;2022-10-19T00:19:48;95638.81;;;6.36;79.73
6132;BME280;3097;42.692;23.278;2022-10-19T00:22:13;95633.13;;;6.26;79.52
6132;BME280;3097;42.692;23.278;2022-10-19T00:24:39;95636.50;;;6.27;79.78
6132;BME280;3097;42.692;23.278;2022-10-19T00:27:05;95635.34;;;6.29;79.28
6132;BME280;3097;42.692;23.278;2022-10-19T00:29:30;95631.38;;;6.27;79.28
6132;BME280;3097;42.692;23.278;2022-10-19T00:31:56;95629.19;;;6.24;79.37
6132;BME280;3097;42.692;23.278;2022-10-19T00:34:21;95616.38;;;6.09;79.55
6132;BME280;3097;42.692;23.278;2022-10-19T00:36:47;95613.91;;;6.15;79.76
6132;BME280;3097;42.692;23.278;2022-10-19T00:39:15;95609.13;;;6.12;79.78
6132;BME280;3097;42.692;23.278;2022-10-19T00:41:41;95607.53;;;6.11;80.12
6132;BME280;3097;42.692;23.278;2022-10-19T00:46:37;95602.16;;;6.06;80.81
6132;BME280;3097;42.692;23.278;2022-10-19T00:49:21;95568.69;;;5.93;80.59
6132;BME280;3097;42.692;23.278;2022-10-19T00:51:50;95595.53;;;6.12;80.38
6132;BME280;3097;42.692;23.278;2022-10-19T00:54:16;95575.84;;;5.98;80.23
6132;BME280;3097;42.692;23.278;2022-10-19T00:56:45;95565.06;;;5.88;80.53
6132;BME280;3097;42.692;23.278;2022-10-19T00:59:18;95585.28;;;5.97;80.59
6132;BME280;3097;42.692;23.278;2022-10-19T01:01:45;95588.81;;;5.96;80.77
6132;BME280;3097;42.692;23.278;2022-10-19T01:04:11;95579.03;;;6.00;80.93
6132;BME280;3097;42.692;23.278;2022-10-19T01:06:38;95567.09;;;5.92;81.11
6132;BME280;3097;42.692;23.278;2022-10-19T01:09:04;95579.03;;;6.00;80.84
6132;BME280;3097;42.692;23.278;2022-10-19T01:11:34;95576.63;;;5.98;80.63
6132;BME280;3097;42.692;23.278;2022-10-19T01:21:50;95563.28;;;5.88;80.16
6132;BME280;3097;42.692;23.278;2022-10-19T01:24:34;95556.13;;;5.83;80.08
6132;BME280;3097;42.692;23.278;2022-10-19T01:32:52;95555.41;;;5.75;80.63
6132;BME280;3097;42.692;23.278;2022-10-19T01:35:32;95547.28;;;5.71;81.02
6132;BME280;3097;42.692;23.278;2022-10-19T01:38:20;95548.06;;;5.72;80.98
6132;BME280;3097;42.692;23.278;2022-10-19T01:41:13;95526.03;;;5.56;81.06
6132;BME280;3097;42.692;23.278;2022-10-19T01:43:56;95543.81;;;5.64;81.04
6132;BME280;3097;42.692;23.278;2022-10-19T01:46:44;95519.97;;;5.49;81.03
6132;BME280;3097;42.692;23.278;2022-10-19T01:50:13;95535.88;;;5.59;81.17
6132;BME280;3097;42.692;23.278;2022-10-19T01:52:19;95522.53;;;5.49;81.25
6132;BME280;3097;42.692;23.278;2022-10-19T01:54:49;95529.09;;;5.52;81.16
6132;BME280;3097;42.692;23.278;2022-10-19T01:57:20;95536.59;;;5.53;81.36
6132;BME280;3097;42.692;23.278;2022-10-19T01:59:47;95535.97;;;5.51;81.65
6132;BME280;3097;42.692;23.278;2022-10-19T02:02:14;95528.66;;;5.48;81.37
6132;BME280;3097;42.692;23.278;2022-10-19T02:04:41;95526.59;;;5.43;81.08
6132;BME280;3097;42.692;23.278;2022-10-19T02:07:08;95532.34;;;5.45;81.08
6132;BME280;3097;42.692;23.278;2022-10-19T02:09:35;95495.53;;;5.17;81.47
6132;BME280;3097;42.692;23.278;2022-10-19T02:12:03;95531.28;;;5.40;81.45
6132;BME280;3097;42.692;23.278;2022-10-19T02:14:34;95520.16;;;5.33;81.15
6132;BME280;3097;42.692;23.278;2022-10-19T02:17:07;95523.56;;;5.25;81.46
6132;BME280;3097;42.692;23.278;2022-10-19T02:19:33;95526.22;;;5.32;81.21
6132;BME280;3097;42.692;23.278;2022-10-19T02:21:58;95493.47;;;5.13;80.97
6132;BME280;3097;42.692;23.278;2022-10-19T02:24:24;95526.38;;;5.30;80.55
6132;BME280;3097;42.692;23.278;2022-10-19T02:26:50;95524.38;;;5.26;81.00
6132;BME280;3097;42.692;23.278;2022-10-19T02:29:16;95510.91;;;5.09;81.15
6132;BME280;3097;42.692;23.278;2022-10-19T02:31:42;95495.63;;;5.01;81.21
6132;BME280;3097;42.692;23.278;2022-10-19T02:34:08;95524.00;;;5.06;81.75
6132;BME280;3097;42.692;23.278;2022-10-19T02:36:34;95508.91;;;4.96;82.15
6132;BME280;3097;42.692;23.278;2022-10-19T02:39:00;95518.56;;;5.09;81.95
6132;BME280;3097;42.692;23.278;2022-10-19T02:44:25;95526.13;;;5.02;82.05
6132;BME280;3097;42.692;23.278;2022-10-19T02:46:58;95501.75;;;4.92;82.09
6132;BME280;3097;42.692;23.278;2022-10-19T02:49:26;95529.94;;;5.06;82.17
6132;BME280;3097;42.692;23.278;2022-10-19T02:52:00;95520.06;;;5.03;82.42
6132;BME280;3097;42.692;23.278;2022-10-19T02:54:26;95513.53;;;5.01;82.52
6132;BME280;3097;42.692;23.278;2022-10-19T02:56:52;95517.78;;;5.09;82.26
6132;BME280;3097;42.692;23.278;2022-10-19T02:59:17;95522.25;;;5.06;82.37
6132;BME280;3097;42.692;23.278;2022-10-19T03:01:43;95518.06;;;5.14;81.88
6132;BME280;3097;42.692;23.278;2022-10-19T03:04:09;95515.84;;;5.11;81.50
6132;BME280;3097;42.692;23.278;2022-10-19T03:06:34;95517.31;;;5.05;82.06
6132;BME280;3097;42.692;23.278;2022-10-19T03:08:59;95515.72;;;5.04;82.07
6132;BME280;3097;42.692;23.278;2022-10-19T03:11:25;95497.13;;;4.95;81.88
6132;BME280;3097;42.692;23.278;2022-10-19T03:13:50;95501.06;;;4.98;82.19
6132;BME280;3097;42.692;23.278;2022-10-19T03:16:16;95521.94;;;5.10;82.27
6132;BME280;3097;42.692;23.278;2022-10-19T03:18:41;95500.81;;;4.93;82.03
6132;BME280;3097;42.692;23.278;2022-10-19T03:21:10;95503.34;;;4.93;82.44
6132;BME280;3097;42.692;23.278;2022-10-19T03:23:36;95530.28;;;5.03;82.36
6132;BME280;3097;42.692;23.278;2022-10-19T03:26:03;95509.38;;;5.00;82.38
6132;BME280;3097;42.692;23.278;2022-10-19T03:28:29;95518.09;;;5.05;82.42
6132;BME280;3097;42.692;23.278;2022-10-19T03:30:54;95519.44;;;5.01;82.68
6132;BME280;3097;42.692;23.278;2022-10-19T03:33:20;95509.84;;;5.03;82.69
6132;BME280;3097;42.692;23.278;2022-10-19T03:35:46;95510.34;;;4.99;82.76
6132;BME280;3097;42.692;23.278;2022-10-19T03:38:11;95404.03;;;4.29;82.60
6132;BME280;3097;42.692;23.278;2022-10-19T03:40:37;95485.06;;;4.81;82.21
6132;BME280;3097;42.692;23.278;2022-10-19T03:43:03;95500.00;;;4.92;82.28
6132;BME280;3097;42.692;23.278;2022-10-19T03:45:29;95512.09;;;4.98;82.03
6132;BME280;3097;42.692;23.278;2022-10-19T03:47:54;95510.50;;;4.97;81.50
6132;BME280;3097;42.692;23.278;2022-10-19T03:50:20;95487.03;;;4.79;81.42
6132;BME280;3097;42.692;23.278;2022-10-19T03:52:45;95503.09;;;4.88;81.76
6132;BME280;3097;42.692;23.278;2022-10-19T03:55:13;95466.41;;;4.58;81.93
6132;BME280;3097;42.692;23.278;2022-10-19T03:57:39;95506.19;;;4.75;82.52
6132;BME280;3097;42.692;23.278;2022-10-19T04:00:05;95492.50;;;4.68;82.56
6132;BME280;3097;42.692;23.278;2022-10-19T04:02:30;95506.53;;;4.72;82.48
6132;BME280;3097;42.692;23.278;2022-10-19T04:04:56;95470.41;;;4.52;82.88
6132;BME280;3097;42.692;23.278;2022-10-19T04:07:21;95462.94;;;4.51;83.08
6132;BME280;3097;42.692;23.278;2022-10-19T04:09:47;95497.28;;;4.71;83.23
6132;BME280;3097;42.692;23.278;2022-10-19T04:12:12;95500.28;;;4.75;82.91
6132;BME280;3097;42.692;23.278;2022-10-19T04:14:38;95503.78;;;4.74;83.17
6132;BME280;3097;42.692;23.278;2022-10-19T04:17:03;95496.31;;;4.72;82.68
6132;BME280;3097;42.692;23.278;2022-10-19T04:19:29;95497.78;;;4.66;83.05
6132;BME280;3097;42.692;23.278;2022-10-19T04:21:55;95452.28;;;4.47;82.84
6132;BME280;3097;42.692;23.278;2022-10-19T04:24:21;95488.03;;;4.70;82.89
6132;BME280;3097;42.692;23.278;2022-10-19T04:26:51;95489.00;;;4.69;82.96
6132;BME280;3097;42.692;23.278;2022-10-19T04:29:19;95484.25;;;4.66;82.79
6132;BME280;3097;42.692;23.278;2022-10-19T04:31:47;95479.75;;;4.68;82.45
6132;BME280;3097;42.692;23.278;2022-10-19T04:34:13;95483.59;;;4.64;82.78
6132;BME280;3097;42.692;23.278;2022-10-19T04:36:39;95479.78;;;4.60;82.52
6132;BME280;3097;42.692;23.278;2022-10-19T04:39:04;95465.66;;;4.49;82.99
6132;BME280;3097;42.692;23.278;2022-10-19T04:41:30;95482.69;;;4.57;83.16
6132;BME280;3097;42.692;23.278;2022-10-19T04:43:59;95477.22;;;4.60;83.00
6132;BME280;3097;42.692;23.278;2022-10-19T04:46:26;95488.91;;;4.54;83.03
6132;BME280;3097;42.692;23.278;2022-10-19T04:48:52;95484.63;;;4.55;83.25
6132;BME280;3097;42.692;23.278;2022-10-19T04:51:17;95478.81;;;4.61;83.34
6132;BME280;3097;42.692;23.278;2022-10-19T04:53:44;95482.00;;;4.63;83.47
6132;BME280;3097;42.692;23.278;2022-10-19T04:56:13;95489.94;;;4.68;83.28
6132;BME280;3097;42.692;23.278;2022-10-19T04:58:39;95490.31;;;4.65;83.10
6132;BME280;3097;42.692;23.278;2022-10-19T05:01:09;95489.63;;;4.71;83.12
6132;BME280;3097;42.692;23.278;2022-10-19T05:03:35;95485.16;;;4.73;83.24
6132;BME280;3097;42.692;23.278;2022-10-19T05:06:01;95490.88;;;4.75;83.01
6132;BME280;3097;42.692;23.278;2022-10-19T05:08:26;95473.63;;;4.77;83.10
6132;BME280;3097;42.692;23.278;2022-10-19T05:10:52;95477.59;;;4.80;83.38
6132;BME280;3097;42.692;23.278;2022-10-19T05:13:17;95479.78;;;4.83;83.13
6132;BME280;3097;42.692;23.278;2022-10-19T05:15:43;95457.72;;;4.67;83.49
6132;BME280;3097;42.692;23.278;2022-10-19T05:18:08;95479.63;;;4.84;84.06
6132;BME280;3097;42.692;23.278;2022-10-19T05:20:34;95471.00;;;4.85;83.59
6132;BME280;3097;42.692;23.278;2022-10-19T05:22:59;95454.78;;;4.78;83.09
6132;BME280;3097;42.692;23.278;2022-10-19T05:25:24;95482.41;;;4.97;82.96
6132;BME280;3097;42.692;23.278;2022-10-19T05:27:53;95361.69;;;4.20;82.87
6132;BME280;3097;42.692;23.278;2022-10-19T05:30:19;95492.03;;;4.95;82.82
6132;BME280;3097;42.692;23.278;2022-10-19T05:32:46;95481.28;;;5.00;82.98
6132;BME280;3097;42.692;23.278;2022-10-19T05:35:12;95464.41;;;4.91;82.97
6132;BME280;3097;42.692;23.278;2022-10-19T05:37:37;95483.94;;;5.06;83.00
6132;BME280;3097;42.692;23.278;2022-10-19T05:40:03;95448.19;;;4.84;83.27
6132;BME280;3097;42.692;23.278;2022-10-19T05:42:28;95482.56;;;5.19;83.15
6132;BME280;3097;42.692;23.278;2022-10-19T05:44:54;95482.31;;;5.28;82.55
6132;BME280;3097;42.692;23.278;2022-10-19T05:47:19;95490.78;;;5.29;83.51
6132;BME280;3097;42.692;23.278;2022-10-19T05:49:45;95493.00;;;5.32;83.67
6132;BME280;3097;42.692;23.278;2022-10-19T05:52:11;95464.94;;;5.24;83.56
6132;BME280;3097;42.692;23.278;2022-10-19T05:54:37;95470.19;;;5.45;82.86
6132;BME280;3097;42.692;23.278;2022-10-19T05:57:02;95487.91;;;5.61;82.27
6132;BME280;3097;42.692;23.278;2022-10-19T05:59:28;95486.50;;;5.73;81.80
6132;BME280;3097;42.692;23.278;2022-10-19T06:01:53;95466.13;;;5.65;81.74
6132;BME280;3097;42.692;23.278;2022-10-19T06:04:19;95472.84;;;5.81;81.09
6132;BME280;3097;42.692;23.278;2022-10-19T06:06:44;95494.50;;;5.93;81.02
6132;BME280;3097;42.692;23.278;2022-10-19T06:09:10;95452.75;;;5.78;80.83
6132;BME280;3097;42.692;23.278;2022-10-19T06:11:38;95498.28;;;6.12;80.52
6132;BME280;3097;42.692;23.278;2022-10-19T06:14:07;95492.34;;;6.26;79.62
6132;BME280;3097;42.692;23.278;2022-10-19T06:16:33;95495.59;;;6.35;79.02
6132;BME280;3097;42.692;23.278;2022-10-19T06:18:59;95492.31;;;6.41;79.36
6132;BME280;3097;42.692;23.278;2022-10-19T06:21:29;95493.56;;;6.45;79.05
6132;BME280;3097;42.692;23.278;2022-10-19T06:23:57;95514.00;;;6.59;78.87
6132;BME280;3097;42.692;23.278;2022-10-19T06:26:23;95511.34;;;6.68;78.20
6132;BME280;3097;42.692;23.278;2022-10-19T06:28:49;95464.81;;;6.49;77.75
6132;BME280;3097;42.692;23.278;2022-10-19T06:31:15;95515.25;;;6.85;77.98
6132;BME280;3097;42.692;23.278;2022-10-19T06:33:43;95506.09;;;6.97;76.98
6132;BME280;3097;42.692;23.278;2022-10-19T06:36:12;95507.59;;;7.06;76.71
6132;BME280;3097;42.692;23.278;2022-10-19T06:38:38;95492.44;;;7.11;76.50
6132;BME280;3097;42.692;23.278;2022-10-19T06:41:04;95511.09;;;7.26;76.26
6132;BME280;3097;42.692;23.278;2022-10-19T06:43:29;95503.81;;;7.30;75.79
6132;BME280;3097;42.692;23.278;2022-10-19T06:45:55;95504.91;;;7.42;75.30
6132;BME280;3097;42.692;23.278;2022-10-19T06:48:20;95495.69;;;7.48;75.19
6132;BME280;3097;42.692;23.278;2022-10-19T06:50:54;95498.16;;;7.62;75.21
6132;BME280;3097;42.692;23.278;2022-10-19T06:53:20;95487.31;;;8.01;74.77
6132;BME280;3097;42.692;23.278;2022-10-19T06:55:45;95485.72;;;9.61;72.56
6132;BME280;3097;42.692;23.278;2022-10-19T06:58:10;95471.19;;;12.43;62.12
6132;BME280;3097;42.692;23.278;2022-10-19T07:00:36;95440.19;;;15.38;52.04
6132;BME280;3097;42.692;23.278;2022-10-19T07:03:02;95432.25;;;17.98;43.41
6132;BME280;3097;42.692;23.278;2022-10-19T07:05:27;95452.78;;;19.69;39.26
6132;BME280;3097;42.692;23.278;2022-10-19T07:07:52;95449.44;;;20.48;37.49
6132;BME280;3097;42.692;23.278;2022-10-19T07:10:18;95450.75;;;21.68;35.31
6132;BME280;3097;42.692;23.278;2022-10-19T07:12:43;95438.72;;;22.62;34.26
6132;BME280;3097;42.692;23.278;2022-10-19T07:15:09;95442.50;;;23.12;31.67
6132;BME280;3097;42.692;23.278;2022-10-19T07:17:34;95434.75;;;23.53;32.04
6132;BME280;3097;42.692;23.278;2022-10-19T07:20:00;95445.28;;;23.86;31.60
6132;BME280;3097;42.692;23.278;2022-10-19T07:22:25;95417.72;;;24.74;29.36
6132;BME280;3097;42.692;23.278;2022-10-19T07:24:50;95437.31;;;25.09;27.78
6132;BME280;3097;42.692;23.278;2022-10-19T07:27:17;95439.03;;;25.36;28.67
6132;BME280;3097;42.692;23.278;2022-10-19T07:29:42;95424.94;;;24.96;28.78
6132;BME280;3097;42.692;23.278;2022-10-19T07:32:08;95436.03;;;24.57;28.88
6132;BME280;3097;42.692;23.278;2022-10-19T07:34:33;95393.78;;;23.93;29.48
6132;BME280;3097;42.692;23.278;2022-10-19T07:36:59;95433.44;;;23.70;29.72
6132;BME280;3097;42.692;23.278;2022-10-19T07:39:24;95438.88;;;23.08;31.80
6132;BME280;3097;42.692;23.278;2022-10-19T07:41:51;95423.13;;;22.47;31.89
6132;BME280;3097;42.692;23.278;2022-10-19T07:44:17;95425.28;;;21.97;33.89
6132;BME280;3097;42.692;23.278;2022-10-19T07:46:42;95424.31;;;21.59;33.20
6132;BME280;3097;42.692;23.278;2022-10-19T07:49:12;95420.25;;;21.43;35.42
6132;BME280;3097;42.692;23.278;2022-10-19T07:51:38;95419.19;;;21.10;34.21
6132;BME280;3097;42.692;23.278;2022-10-19T07:54:04;95407.25;;;20.94;35.05
6132;BME280;3097;42.692;23.278;2022-10-19T07:56:30;95412.66;;;20.64;34.09
6132;BME280;3097;42.692;23.278;2022-10-19T07:58:57;95332.81;;;20.02;37.31
6132;BME280;3097;42.692;23.278;2022-10-19T08:01:28;95407.97;;;20.66;36.45
6132;BME280;3097;42.692;23.278;2022-10-19T08:03:56;95406.34;;;20.75;35.94
6132;BME280;3097;42.692;23.278;2022-10-19T08:06:22;95399.06;;;20.62;36.55
6132;BME280;3097;42.692;23.278;2022-10-19T08:08:48;95402.63;;;20.76;36.92
6132;BME280;3097;42.692;23.278;2022-10-19T08:13:39;95400.94;;;20.95;35.67
6132;BME280;3097;42.692;23.278;2022-10-19T08:16:05;95402.63;;;20.76;35.24
6132;BME280;3097;42.692;23.278;2022-10-19T08:18:43;95398.19;;;20.76;36.64
6132;BME280;3097;42.692;23.278;2022-10-19T08:21:09;95394.41;;;20.93;35.63
6132;BME280;3097;42.692;23.278;2022-10-19T08:23:34;95392.72;;;21.07;35.90
6132;BME280;3097;42.692;23.278;2022-10-19T08:26:00;95399.19;;;21.24;36.09
6132;BME280;3097;42.692;23.278;2022-10-19T08:28:25;95392.78;;;21.36;36.22
6132;BME280;3097;42.692;23.278;2022-10-19T08:30:51;95387.72;;;21.44;36.54
6132;BME280;3097;42.692;23.278;2022-10-19T08:33:22;95380.59;;;21.50;34.78
6132;BME280;3097;42.692;23.278;2022-10-19T08:35:47;95379.31;;;21.47;34.21
6132;BME280;3097;42.692;23.278;2022-10-19T08:38:13;95379.31;;;21.47;35.05
6132;BME280;3097;42.692;23.278;2022-10-19T08:40:38;95374.59;;;21.44;35.24
6132;BME280;3097;42.692;23.278;2022-10-19T08:43:47;95377.00;;;21.41;35.28
6132;BME280;3097;42.692;23.278;2022-10-19T08:46:23;95367.75;;;21.14;35.40
6132;BME280;3097;42.692;23.278;2022-10-19T08:48:50;95370.19;;;20.72;35.38
6132;BME280;3097;42.692;23.278;2022-10-19T08:51:16;95361.88;;;20.60;35.67
6132;BME280;3097;42.692;23.278;2022-10-19T08:58:39;95366.94;;;19.82;37.60
6132;BME280;3097;42.692;23.278;2022-10-19T09:03:50;95366.75;;;19.07;39.10
6132;BME280;3097;42.692;23.278;2022-10-19T09:06:38;95363.59;;;18.95;39.78
6132;BME280;3097;42.692;23.278;2022-10-19T09:09:11;95362.06;;;18.94;42.10
6132;BME280;3097;42.692;23.278;2022-10-19T09:11:41;95352.91;;;18.91;39.96
6132;BME280;3097;42.692;23.278;2022-10-19T09:14:23;95310.78;;;18.42;41.05
6132;BME280;3097;42.692;23.278;2022-10-19T09:16:50;95347.06;;;18.39;41.37
6132;BME280;3097;42.692;23.278;2022-10-19T09:19:23;95358.53;;;18.28;42.09
6132;BME280;3097;42.692;23.278;2022-10-19T09:22:00;95351.44;;;18.13;42.50
6132;BME280;3097;42.692;23.278;2022-10-19T09:27:47;95320.75;;;17.68;41.73
6132;BME280;3097;42.692;23.278;2022-10-19T09:30:18;95360.69;;;17.78;42.15
6132;BME280;3097;42.692;23.278;2022-10-19T09:32:44;95360.94;;;17.72;43.16
6132;BME280;3097;42.692;23.278;2022-10-19T09:35:33;95360.16;;;17.76;42.29
6132;BME280;3097;42.692;23.278;2022-10-19T09:38:01;95351.56;;;17.76;42.58
6132;BME280;3097;42.692;23.278;2022-10-19T09:40:29;95355.47;;;17.78;43.30
6132;BME280;3097;42.692;23.278;2022-10-19T09:42:55;95343.72;;;17.71;42.10
6132;BME280;3097;42.692;23.278;2022-10-19T09:45:31;95357.28;;;17.73;42.52
6132;BME280;3097;42.692;23.278;2022-10-19T09:47:59;95321.06;;;17.34;44.38
6132;BME280;3097;42.692;23.278;2022-10-19T09:50:29;95333.72;;;17.58;43.35
6132;BME280;3097;42.692;23.278;2022-10-19T09:53:04;95313.28;;;17.45;42.70
6132;BME280;3097;42.692;23.278;2022-10-19T09:55:42;95345.44;;;17.60;43.25
6132;BME280;3097;42.692;23.278;2022-10-19T09:58:17;95350.19;;;17.63;43.63
6132;BME280;3097;42.692;23.278;2022-10-19T10:00:47;95356.19;;;17.64;43.95
6132;BME280;3097;42.692;23.278;2022-10-19T10:05:48;95343.16;;;17.64;42.76
6132;BME280;3097;42.692;23.278;2022-10-19T10:08:19;95338.41;;;17.61;44.49
6132;BME280;3097;42.692;23.278;2022-10-19T10:10:52;95333.50;;;17.64;43.90
6132;BME280;3097;42.692;23.278;2022-10-19T10:13:23;95334.56;;;17.68;44.10
6132;BME280;3097;42.692;23.278;2022-10-19T10:15:54;95321.09;;;17.82;41.96
6132;BME280;3097;42.692;23.278;2022-10-19T10:18:22;95316.38;;;17.84;41.47
6132;BME280;3097;42.692;23.278;2022-10-19T10:21:02;95314.59;;;17.89;41.96
6132;BME280;3097;42.692;23.278;2022-10-19T10:23:32;95286.59;;;17.74;42.66
6132;BME280;3097;42.692;23.278;2022-10-19T10:26:01;95302.06;;;17.91;42.61
6132;BME280;3097;42.692;23.278;2022-10-19T10:28:28;95306.78;;;17.99;41.49
6132;BME280;3097;42.692;23.278;2022-10-19T10:31:05;95300.81;;;18.09;41.55
6132;BME280;3097;42.692;23.278;2022-10-19T10:33:33;95270.50;;;17.88;42.63
6132;BME280;3097;42.692;23.278;2022-10-19T10:36:06;95286.94;;;17.98;41.38
6132;BME280;3097;42.692;23.278;2022-10-19T10:38:42;95287.72;;;17.99;42.66
6132;BME280;3097;42.692;23.278;2022-10-19T10:41:18;95285.41;;;18.02;41.84
6132;BME280;3097;42.692;23.278;2022-10-19T10:44:14;95277.06;;;18.15;41.39
6132;BME280;3097;42.692;23.278;2022-10-19T10:49:21;95254.09;;;18.07;40.33
6132;BME280;3097;42.692;23.278;2022-10-19T10:51:52;95265.34;;;18.18;40.76
6132;BME280;3097;42.692;23.278;2022-10-19T10:54:28;95267.44;;;18.21;40.91
6132;BME280;3097;42.692;23.278;2022-10-19T10:57:13;95258.28;;;18.13;42.11
6132;BME280;3097;42.692;23.278;2022-10-19T11:05:13;95238.97;;;18.19;39.11
6132;BME280;3097;42.692;23.278;2022-10-19T11:07:43;95241.88;;;18.18;38.63
6132;BME280;3097;42.692;23.278;2022-10-19T11:10:32;95229.03;;;18.01;38.71
6132;BME280;3097;42.692;23.278;2022-10-19T11:13:05;95241.34;;;18.16;37.74
6132;BME280;3097;42.692;23.278;2022-10-19T11:15:47;95234.81;;;18.24;36.14
6132;BME280;3097;42.692;23.278;2022-10-19T11:18:26;95230.13;;;18.26;36.89
6132;BME280;3097;42.692;23.278;2022-10-19T11:21:05;95224.38;;;18.29;35.07
6132;BME280;3097;42.692;23.278;2022-10-19T11:31:48;95221.75;;;18.29;36.09
6132;BME280;3097;42.692;23.278;2022-10-19T11:34:34;95227.50;;;18.31;35.33
6132;BME280;3097;42.692;23.278;2022-10-19T11:45:08;95186.53;;;18.01;35.60
6132;BME280;3097;42.692;23.278;2022-10-19T11:53:33;95194.88;;;18.28;35.20
6132;BME280;3097;42.692;23.278;2022-10-19T11:56:26;95191.47;;;18.28;35.73
6132;BME280;3097;42.692;23.278;2022-10-19T11:59:08;95183.13;;;18.31;35.81
6132;BME280;3097;42.692;23.278;2022-10-19T12:04:42;95176.34;;;18.35;35.40
6132;BME280;3097;42.692;23.278;2022-10-19T12:12:37;95154.16;;;18.37;35.69
6132;BME280;3097;42.692;23.278;2022-10-19T12:15:32;95177.41;;;18.59;34.68
6132;BME280;3097;42.692;23.278;2022-10-19T12:20:58;95170.59;;;18.58;34.71
6132;BME280;3097;42.692;23.278;2022-10-19T12:23:39;95181.81;;;18.74;34.56
6132;BME280;3097;42.692;23.278;2022-10-19T12:26:18;95177.38;;;18.74;34.55
6132;BME280;3097;42.692;23.278;2022-10-19T12:28:59;95174.78;;;18.79;34.72
6132;BME280;3097;42.692;23.278;2022-10-19T12:31:26;95159.34;;;18.78;34.49
6132;BME280;3097;42.692;23.278;2022-10-19T12:34:01;95170.56;;;18.83;33.96
6132;BME280;3097;42.692;23.278;2022-10-19T12:36:34;95165.31;;;18.88;34.25
6132;BME280;3097;42.692;23.278;2022-10-19T12:39:14;95113.19;;;18.48;34.88
6132;BME280;3097;42.692;23.278;2022-10-19T12:41:50;95162.72;;;18.93;34.08
6132;BME280;3097;42.692;23.278;2022-10-19T12:47:14;95159.28;;;18.98;36.58
6132;BME280;3097;42.692;23.278;2022-10-19T12:49:47;95156.66;;;19.03;36.09
6132;BME280;3097;42.692;23.278;2022-10-19T12:52:16;95152.22;;;19.09;36.09
6132;BME280;3097;42.692;23.278;2022-10-19T12:57:41;95152.97;;;19.14;35.81
6132;BME280;3097;42.692;23.278;2022-10-19T13:00:26;95159.00;;;19.05;36.12
6132;BME280;3097;42.692;23.278;2022-10-19T13:03:06;95160.56;;;19.06;37.00
6132;BME280;3097;42.692;23.278;2022-10-19T13:05:38;95148.25;;;19.11;37.34
6132;BME280;3097;42.692;23.278;2022-10-19T13:08:05;95129.25;;;18.95;37.68
6132;BME280;3097;42.692;23.278;2022-10-19T13:10:31;95149.53;;;19.19;37.30
6132;BME280;3097;42.692;23.278;2022-10-19T13:12:58;95154.75;;;19.24;37.20
6132;BME280;3097;42.692;23.278;2022-10-19T13:18:11;95143.78;;;19.22;37.21
6132;BME280;3097;42.692;23.278;2022-10-19T13:25:35;95144.00;;;19.25;36.04
6132;BME280;3097;42.692;23.278;2022-10-19T13:38:36;95142.47;;;19.24;38.37
6132;BME280;3097;42.692;23.278;2022-10-19T13:41:19;95138.22;;;19.33;37.58
6132;BME280;3097;42.692;23.278;2022-10-19T13:43:55;95139.06;;;19.29;37.78
6132;BME280;3097;42.692;23.278;2022-10-19T13:49:27;95129.63;;;19.28;37.56
6132;BME280;3097;42.692;23.278;2022-10-19T14:05:46;95084.16;;;19.29;36.96
6132;BME280;3097;42.692;23.278;2022-10-19T14:11:25;95025.84;;;18.84;37.73
6132;BME280;3097;42.692;23.278;2022-10-19T14:16:57;95108.91;;;19.42;37.31
6132;BME280;3097;42.692;23.278;2022-10-19T14:19:33;95112.91;;;19.29;38.21
6132;BME280;3097;42.692;23.278;2022-10-19T14:22:43;95113.91;;;19.33;38.34
6132;BME280;3097;42.692;23.278;2022-10-19T14:27:37;95085.81;;;19.10;38.79
6132;BME280;3097;42.692;23.278;2022-10-19T14:30:03;95118.41;;;19.27;38.94
6132;BME280;3097;42.692;23.278;2022-10-19T14:32:31;95117.09;;;19.25;39.38
6132;BME280;3097;42.692;23.278;2022-10-19T14:35:14;95116.06;;;19.26;38.82
6132;BME280;3097;42.692;23.278;2022-10-19T14:37:42;95092.88;;;19.09;39.05
6132;BME280;3097;42.692;23.278;2022-10-19T14:42:46;95126.53;;;19.21;39.48
6132;BME280;3097;42.692;23.278;2022-10-19T14:45:24;95125.22;;;19.18;39.48
6132;BME280;3097;42.692;23.278;2022-10-19T14:48:15;95129.22;;;19.06;39.99
6132;BME280;3097;42.692;23.278;2022-10-19T14:50:53;95109.66;;;18.98;38.87
6132;BME280;3097;42.692;23.278;2022-10-19T14:53:39;95130.31;;;18.89;39.61
6132;BME280;3097;42.692;23.278;2022-10-19T14:58:49;95137.63;;;18.87;40.17
6132;BME280;3097;42.692;23.278;2022-10-19T15:01:16;95123.06;;;18.76;39.70
6132;BME280;3097;42.692;23.278;2022-10-19T15:03:43;95133.53;;;18.71;39.56
6132;BME280;3097;42.692;23.278;2022-10-19T15:06:23;95142.13;;;18.67;39.74
6132;BME280;3097;42.692;23.278;2022-10-19T15:08:53;95146.31;;;18.58;40.00
6132;BME280;3097;42.692;23.278;2022-10-19T15:13:55;95144.00;;;18.31;40.25
6132;BME280;3097;42.692;23.278;2022-10-19T15:19:05;95164.34;;;18.24;40.71
6132;BME280;3097;42.692;23.278;2022-10-19T15:21:31;95165.91;;;18.14;40.99
6132;BME280;3097;42.692;23.278;2022-10-19T15:24:15;95153.91;;;17.98;40.59
6132;BME280;3097;42.692;23.278;2022-10-19T15:26:51;95152.59;;;17.91;41.20
6132;BME280;3097;42.692;23.278;2022-10-19T15:29:26;95159.91;;;17.73;41.50
6132;BME280;3097;42.692;23.278;2022-10-19T15:31:52;95064.53;;;16.95;41.95
6132;BME280;3097;42.692;23.278;2022-10-19T15:34:29;95168.16;;;17.55;42.49
6132;BME280;3097;42.692;23.278;2022-10-19T15:36:59;95176.75;;;17.51;42.54
6132;BME280;3097;42.692;23.278;2022-10-19T15:39:32;95171.00;;;17.44;42.93
6132;BME280;3097;42.692;23.278;2022-10-19T15:45:03;95172.97;;;17.16;44.01
6132;BME280;3097;42.692;23.278;2022-10-19T15:47:29;95193.28;;;17.14;44.51
6132;BME280;3097;42.692;23.278;2022-10-19T15:49:57;95197.16;;;17.07;44.51